CSZ9521 ZGSZ-ZSPD
Flight info
| Callsign | CSZ9521 |
|---|---|
| Flight time | 1h 46m |
| Altitude | 35100 |
| Route | IDUMA W41 OMDUP G471 PLT A599 ELNEX G204 SHZ W58 XSY |
| Aircraft | A320/M-SDE3FGHIRWY/LB1 |
Departure
| Time | 2026-04-12 08:52 |
|---|---|
| Airport | Shenzhen Bao'an International Airport (ZGSZ) |
Arrival
| Time | 2026-04-12 10:39 |
|---|---|
| Airport | Shanghai Pudong International Airport (ZSPD) |
| Time | Latitude | Longitude | Altitude | Speed | Heading |
|---|---|---|---|---|---|
| 2026-04-12 08:32 | 22.63493 | 113.80525 | 22 ft | 0 kts | 243° |
| 2026-04-12 08:43 | 22.63500 | 113.80541 | 22 ft | 2 kts | 244° |
| 2026-04-12 08:43 | 22.63508 | 113.80557 | 23 ft | 2 kts | 242° |
| 2026-04-12 08:43 | 22.63516 | 113.80573 | 23 ft | 2 kts | 256° |
| 2026-04-12 08:44 | 22.63515 | 113.80590 | 23 ft | 2 kts | 303° |
| 2026-04-12 08:44 | 22.63506 | 113.80602 | 25 ft | 1 kts | 330° |
| 2026-04-12 08:44 | 22.63505 | 113.80603 | 24 ft | 0 kts | 331° |
| 2026-04-12 08:45 | 22.63517 | 113.80596 | 23 ft | 7 kts | 332° |
| 2026-04-12 08:45 | 22.63584 | 113.80558 | 22 ft | 12 kts | 333° |
| 2026-04-12 08:45 | 22.63651 | 113.80521 | 22 ft | 10 kts | 333° |
| 2026-04-12 08:46 | 22.63713 | 113.80487 | 22 ft | 11 kts | 333° |
| 2026-04-12 08:46 | 22.63786 | 113.80451 | 22 ft | 10 kts | 351° |
| 2026-04-12 08:46 | 22.63869 | 113.80579 | 22 ft | 17 kts | 62° |
| 2026-04-12 08:47 | 22.63930 | 113.80708 | 22 ft | 20 kts | 64° |
| 2026-04-12 08:47 | 22.63986 | 113.80798 | 22 ft | 15 kts | 22° |
| 2026-04-12 08:47 | 22.64090 | 113.80756 | 21 ft | 13 kts | 333° |
| 2026-04-12 08:47 | 22.64166 | 113.80714 | 22 ft | 12 kts | 333° |
| 2026-04-12 08:48 | 22.64234 | 113.80676 | 22 ft | 10 kts | 333° |
| 2026-04-12 08:48 | 22.64296 | 113.80642 | 23 ft | 11 kts | 333° |
| 2026-04-12 08:48 | 22.64380 | 113.80597 | 22 ft | 16 kts | 333° |
| 2026-04-12 08:48 | 22.64493 | 113.80535 | 22 ft | 20 kts | 333° |
| 2026-04-12 08:49 | 22.64627 | 113.80462 | 22 ft | 22 kts | 333° |
| 2026-04-12 08:49 | 22.64763 | 113.80387 | 22 ft | 23 kts | 333° |
| 2026-04-12 08:49 | 22.64911 | 113.80305 | 22 ft | 24 kts | 333° |
| 2026-04-12 08:49 | 22.65066 | 113.80220 | 22 ft | 26 kts | 333° |
| 2026-04-12 08:50 | 22.65178 | 113.80159 | 22 ft | 10 kts | 333° |
| 2026-04-12 08:50 | 22.65225 | 113.80188 | 22 ft | 8 kts | 61° |
| 2026-04-12 08:50 | 22.65240 | 113.80217 | 22 ft | 3 kts | 62° |
| 2026-04-12 08:50 | 22.65248 | 113.80235 | 22 ft | 4 kts | 63° |
| 2026-04-12 08:51 | 22.65272 | 113.80287 | 23 ft | 11 kts | 64° |
| 2026-04-12 08:51 | 22.65245 | 113.80344 | 23 ft | 9 kts | 150° |
| 2026-04-12 08:51 | 22.65236 | 113.80349 | 24 ft | 0 kts | 153° |
| 2026-04-12 08:51 | 22.65229 | 113.80353 | 23 ft | 7 kts | 153° |
| 2026-04-12 08:52 | 22.64951 | 113.80503 | 26 ft | 79 kts | 153° |
| 2026-04-12 08:52 | 22.64278 | 113.80870 | 23 ft | 135 kts | 153° |
| 2026-04-12 08:52 | 22.63310 | 113.81391 | 191 ft | 165 kts | 154° |
| 2026-04-12 08:52 | 22.62287 | 113.81951 | 884 ft | 166 kts | 157° |
| 2026-04-12 08:53 | 22.61249 | 113.82521 | 1601 ft | 167 kts | 157° |
| 2026-04-12 08:53 | 22.60187 | 113.83104 | 2146 ft | 177 kts | 157° |
| 2026-04-12 08:53 | 22.59037 | 113.83731 | 2548 ft | 193 kts | 157° |
| 2026-04-12 08:53 | 22.57789 | 113.84412 | 2955 ft | 209 kts | 156° |
| 2026-04-12 08:54 | 22.56456 | 113.85138 | 3328 ft | 227 kts | 157° |
| 2026-04-12 08:54 | 22.55008 | 113.85927 | 3848 ft | 237 kts | 157° |
| 2026-04-12 08:54 | 22.53529 | 113.86738 | 4562 ft | 240 kts | 158° |
| 2026-04-12 08:54 | 22.52028 | 113.87568 | 5216 ft | 245 kts | 155° |
| 2026-04-12 08:55 | 22.50767 | 113.88848 | 5921 ft | 258 kts | 123° |
| 2026-04-12 08:55 | 22.50333 | 113.90759 | 6550 ft | 273 kts | 88° |
| 2026-04-12 08:55 | 22.50898 | 113.92740 | 7151 ft | 282 kts | 66° |
| 2026-04-12 08:55 | 22.51776 | 113.94660 | 7809 ft | 286 kts | 63° |
| 2026-04-12 08:56 | 22.52714 | 113.96573 | 8542 ft | 288 kts | 62° |
| 2026-04-12 08:56 | 22.53669 | 113.98484 | 9269 ft | 290 kts | 60° |
| 2026-04-12 08:56 | 22.54917 | 114.00199 | 9962 ft | 291 kts | 40° |
| 2026-04-12 08:56 | 22.56577 | 114.01460 | 10513 ft | 295 kts | 23° |
| 2026-04-12 08:57 | 22.58553 | 114.02167 | 10857 ft | 304 kts | 4° |
| 2026-04-12 08:57 | 22.60704 | 114.02393 | 11201 ft | 319 kts | 1° |
| 2026-04-12 08:57 | 22.62974 | 114.02610 | 11500 ft | 336 kts | 1° |
| 2026-04-12 08:57 | 22.65359 | 114.02849 | 11771 ft | 352 kts | 1° |
| 2026-04-12 08:58 | 22.67819 | 114.03104 | 12020 ft | 368 kts | 1° |
| 2026-04-12 08:58 | 22.70416 | 114.03162 | 12237 ft | 379 kts | 349° |
| 2026-04-12 08:58 | 22.73014 | 114.02564 | 12437 ft | 386 kts | 335° |
| 2026-04-12 08:58 | 22.75542 | 114.01459 | 12585 ft | 399 kts | 332° |
| 2026-04-12 08:59 | 22.78154 | 114.00283 | 12707 ft | 414 kts | 332° |
| 2026-04-12 08:59 | 22.80848 | 113.99071 | 12937 ft | 423 kts | 332° |
| 2026-04-12 08:59 | 22.83580 | 113.97851 | 13376 ft | 427 kts | 332° |
| 2026-04-12 08:59 | 22.86351 | 113.96666 | 13840 ft | 432 kts | 336° |
| 2026-04-12 09:00 | 22.89301 | 113.95913 | 14298 ft | 440 kts | 347° |
| 2026-04-12 09:00 | 22.92389 | 113.95750 | 14719 ft | 449 kts | 358° |
| 2026-04-12 09:00 | 22.95513 | 113.96173 | 15119 ft | 456 kts | 5° |
| 2026-04-12 09:00 | 22.98651 | 113.96730 | 15501 ft | 458 kts | 5° |
| 2026-04-12 09:01 | 23.01805 | 113.97283 | 15885 ft | 459 kts | 4° |
| 2026-04-12 09:01 | 23.04966 | 113.97833 | 16256 ft | 461 kts | 4° |
| 2026-04-12 09:01 | 23.08138 | 113.98385 | 16621 ft | 463 kts | 4° |
| 2026-04-12 09:01 | 23.11325 | 113.98939 | 16959 ft | 465 kts | 4° |
| 2026-04-12 09:02 | 23.14521 | 113.99494 | 17298 ft | 466 kts | 4° |
| 2026-04-12 09:02 | 23.17734 | 114.00055 | 17619 ft | 468 kts | 4° |
| 2026-04-12 09:02 | 23.19863 | 114.00427 | 17830 ft | 469 kts | 4° |
| 2026-04-12 09:02 | 23.24188 | 114.01186 | 18220 ft | 472 kts | 4° |
| 2026-04-12 09:03 | 23.26336 | 114.01563 | 18395 ft | 473 kts | 4° |
| 2026-04-12 09:03 | 23.30699 | 114.01963 | 18749 ft | 467 kts | 353° |
| 2026-04-12 09:03 | 23.32849 | 114.01875 | 18909 ft | 468 kts | 352° |
| 2026-04-12 09:03 | 23.37210 | 114.01673 | 19237 ft | 470 kts | 352° |
| 2026-04-12 09:04 | 23.40438 | 114.01526 | 19478 ft | 472 kts | 352° |
| 2026-04-12 09:04 | 23.42654 | 114.01427 | 19630 ft | 473 kts | 353° |
| 2026-04-12 09:04 | 23.47046 | 114.01767 | 19916 ft | 484 kts | 6° |
| 2026-04-12 09:04 | 23.49258 | 114.02365 | 20076 ft | 489 kts | 13° |
| 2026-04-12 09:05 | 23.53422 | 114.04369 | 20346 ft | 499 kts | 27° |
| 2026-04-12 09:05 | 23.55377 | 114.05796 | 20473 ft | 503 kts | 34° |
| 2026-04-12 09:05 | 23.58156 | 114.08136 | 20658 ft | 505 kts | 34° |
| 2026-04-12 09:05 | 23.60941 | 114.10480 | 20826 ft | 507 kts | 34° |
| 2026-04-12 09:06 | 23.63736 | 114.12829 | 20993 ft | 508 kts | 34° |
| 2026-04-12 09:06 | 23.66512 | 114.15158 | 21141 ft | 510 kts | 34° |
| 2026-04-12 09:06 | 23.69321 | 114.17519 | 21285 ft | 511 kts | 34° |
| 2026-04-12 09:06 | 23.72138 | 114.19895 | 21423 ft | 512 kts | 34° |
| 2026-04-12 09:07 | 23.74963 | 114.22277 | 21571 ft | 514 kts | 34° |
| 2026-04-12 09:07 | 23.77791 | 114.24663 | 21709 ft | 515 kts | 34° |
| 2026-04-12 09:07 | 23.80636 | 114.27060 | 21861 ft | 516 kts | 34° |
| 2026-04-12 09:07 | 23.83479 | 114.29447 | 22012 ft | 517 kts | 34° |
| 2026-04-12 09:08 | 23.86354 | 114.31826 | 22141 ft | 518 kts | 33° |
| 2026-04-12 09:08 | 23.89239 | 114.34179 | 22281 ft | 519 kts | 33° |
| 2026-04-12 09:08 | 23.92150 | 114.36534 | 22426 ft | 520 kts | 33° |
| 2026-04-12 09:08 | 23.95060 | 114.38891 | 22552 ft | 520 kts | 33° |
| 2026-04-12 09:09 | 23.97972 | 114.41255 | 22676 ft | 521 kts | 33° |
| 2026-04-12 09:09 | 24.00870 | 114.43621 | 22807 ft | 521 kts | 33° |
| 2026-04-12 09:09 | 24.03775 | 114.46004 | 22934 ft | 522 kts | 33° |
| 2026-04-12 09:09 | 24.06682 | 114.48394 | 23065 ft | 522 kts | 33° |
| 2026-04-12 09:10 | 24.09592 | 114.50789 | 23194 ft | 523 kts | 33° |
| 2026-04-12 09:10 | 24.12465 | 114.53151 | 23321 ft | 523 kts | 33° |
| 2026-04-12 09:10 | 24.15378 | 114.55545 | 23445 ft | 524 kts | 33° |
| 2026-04-12 09:10 | 24.18293 | 114.57940 | 23556 ft | 525 kts | 33° |
| 2026-04-12 09:11 | 24.21215 | 114.60340 | 23656 ft | 525 kts | 33° |
| 2026-04-12 09:11 | 24.24129 | 114.62736 | 23761 ft | 524 kts | 33° |
| 2026-04-12 09:11 | 24.27046 | 114.65139 | 23873 ft | 524 kts | 33° |
| 2026-04-12 09:11 | 24.29962 | 114.67545 | 23981 ft | 525 kts | 33° |
| 2026-04-12 09:12 | 24.32880 | 114.69957 | 24090 ft | 526 kts | 33° |
| 2026-04-12 09:12 | 24.35807 | 114.72378 | 24218 ft | 526 kts | 33° |
| 2026-04-12 09:12 | 24.38733 | 114.74796 | 24360 ft | 526 kts | 33° |
| 2026-04-12 09:12 | 24.41661 | 114.77214 | 24488 ft | 527 kts | 33° |
| 2026-04-12 09:13 | 24.44589 | 114.79633 | 24612 ft | 526 kts | 33° |
| 2026-04-12 09:13 | 24.47508 | 114.82049 | 24754 ft | 526 kts | 33° |
| 2026-04-12 09:13 | 24.50428 | 114.84465 | 24901 ft | 526 kts | 33° |
| 2026-04-12 09:13 | 24.53345 | 114.86882 | 25078 ft | 526 kts | 34° |
| 2026-04-12 09:14 | 24.56266 | 114.89302 | 25242 ft | 526 kts | 33° |
| 2026-04-12 09:14 | 24.59260 | 114.91469 | 25427 ft | 520 kts | 25° |
| 2026-04-12 09:14 | 24.62513 | 114.93158 | 25631 ft | 513 kts | 16° |
| 2026-04-12 09:14 | 24.65902 | 114.94309 | 25827 ft | 506 kts | 7° |
| 2026-04-12 09:15 | 24.69328 | 114.95142 | 26013 ft | 505 kts | 7° |
| 2026-04-12 09:15 | 24.72767 | 114.95981 | 26208 ft | 505 kts | 7° |
| 2026-04-12 09:15 | 24.76195 | 114.96828 | 26411 ft | 504 kts | 7° |
| 2026-04-12 09:15 | 24.79618 | 114.97675 | 26606 ft | 504 kts | 7° |
| 2026-04-12 09:16 | 24.83034 | 114.98513 | 26813 ft | 503 kts | 7° |
| 2026-04-12 09:16 | 24.86455 | 114.99346 | 27026 ft | 503 kts | 7° |
| 2026-04-12 09:16 | 24.89871 | 115.00175 | 27227 ft | 502 kts | 6° |
| 2026-04-12 09:16 | 24.93286 | 115.01005 | 27448 ft | 502 kts | 7° |
| 2026-04-12 09:17 | 24.96690 | 115.01833 | 27674 ft | 501 kts | 6° |
| 2026-04-12 09:17 | 25.00096 | 115.02663 | 27909 ft | 500 kts | 7° |
| 2026-04-12 09:17 | 25.03486 | 115.03494 | 28269 ft | 497 kts | 6° |
| 2026-04-12 09:17 | 25.06839 | 115.04317 | 28657 ft | 494 kts | 7° |
| 2026-04-12 09:18 | 25.10182 | 115.05137 | 29042 ft | 490 kts | 6° |
| 2026-04-12 09:18 | 25.13505 | 115.05949 | 29436 ft | 487 kts | 6° |
| 2026-04-12 09:18 | 25.16807 | 115.06756 | 29838 ft | 484 kts | 6° |
| 2026-04-12 09:18 | 25.20083 | 115.07555 | 30179 ft | 481 kts | 6° |
| 2026-04-12 09:19 | 25.23349 | 115.08351 | 30526 ft | 479 kts | 6° |
| 2026-04-12 09:19 | 25.26594 | 115.09143 | 30869 ft | 476 kts | 6° |
| 2026-04-12 09:19 | 25.29782 | 115.09837 | 31215 ft | 469 kts | 0° |
| 2026-04-12 09:20 | 25.36134 | 115.09684 | 31931 ft | 447 kts | 342° |
| 2026-04-12 09:20 | 25.39112 | 115.08833 | 32295 ft | 437 kts | 334° |
| 2026-04-12 09:20 | 25.44572 | 115.06161 | 33033 ft | 426 kts | 328° |
| 2026-04-12 09:21 | 25.47257 | 115.04781 | 33410 ft | 424 kts | 328° |
| 2026-04-12 09:21 | 25.49930 | 115.03412 | 33747 ft | 423 kts | 328° |
| 2026-04-12 09:21 | 25.52597 | 115.02045 | 34018 ft | 422 kts | 328° |
| 2026-04-12 09:21 | 25.55255 | 115.00685 | 34290 ft | 420 kts | 328° |
| 2026-04-12 09:22 | 25.57901 | 114.99332 | 34560 ft | 418 kts | 328° |
| 2026-04-12 09:22 | 25.60537 | 114.97979 | 34815 ft | 417 kts | 328° |
| 2026-04-12 09:22 | 25.63176 | 114.96618 | 34888 ft | 420 kts | 328° |
| 2026-04-12 09:23 | 25.68545 | 114.93840 | 34903 ft | 431 kts | 328° |
| 2026-04-12 09:23 | 25.74127 | 114.91192 | 34964 ft | 447 kts | 340° |
| 2026-04-12 09:23 | 25.77213 | 114.90696 | 35420 ft | 449 kts | 353° |
| 2026-04-12 09:24 | 25.80335 | 114.90964 | 35856 ft | 454 kts | 5° |
| 2026-04-12 09:24 | 25.83469 | 114.91695 | 34915 ft | 472 kts | 11° |
| 2026-04-12 09:24 | 25.86311 | 114.93039 | 36307 ft | 435 kts | 24° |
| 2026-04-12 09:24 | 25.88860 | 114.94805 | 36861 ft | 430 kts | 24° |
| 2026-04-12 09:25 | 25.91582 | 114.96074 | 36661 ft | 424 kts | 6° |
| 2026-04-12 09:25 | 25.94499 | 114.96747 | 35851 ft | 433 kts | 3° |
| 2026-04-12 09:25 | 25.97538 | 114.97312 | 35218 ft | 452 kts | 2° |
| 2026-04-12 09:25 | 26.00683 | 114.97870 | 34983 ft | 463 kts | 2° |
| 2026-04-12 09:26 | 26.03892 | 114.98437 | 34878 ft | 471 kts | 4° |
| 2026-04-12 09:26 | 26.07108 | 114.99339 | 34910 ft | 485 kts | 17° |
| 2026-04-12 09:26 | 26.10146 | 115.01068 | 34916 ft | 496 kts | 26° |
| 2026-04-12 09:27 | 26.16088 | 115.05078 | 34916 ft | 501 kts | 26° |
| 2026-04-12 09:27 | 26.22027 | 115.09124 | 34923 ft | 501 kts | 26° |
| 2026-04-12 09:27 | 26.24934 | 115.11319 | 34915 ft | 510 kts | 37° |
| 2026-04-12 09:28 | 26.27372 | 115.14231 | 34924 ft | 520 kts | 52° |
| 2026-04-12 09:28 | 26.31492 | 115.20919 | 34927 ft | 526 kts | 53° |
| 2026-04-12 09:29 | 26.35605 | 115.27681 | 34927 ft | 527 kts | 53° |
| 2026-04-12 09:29 | 26.39720 | 115.34445 | 34931 ft | 527 kts | 53° |
| 2026-04-12 09:30 | 26.43818 | 115.41164 | 34934 ft | 528 kts | 53° |
| 2026-04-12 09:30 | 26.47952 | 115.47948 | 34939 ft | 529 kts | 53° |
| 2026-04-12 09:31 | 26.52074 | 115.54734 | 34941 ft | 528 kts | 53° |
| 2026-04-12 09:31 | 26.56198 | 115.61534 | 34946 ft | 529 kts | 53° |
| 2026-04-12 09:32 | 26.60322 | 115.68346 | 34955 ft | 529 kts | 53° |
| 2026-04-12 09:32 | 26.64450 | 115.75169 | 34950 ft | 529 kts | 53° |
| 2026-04-12 09:33 | 26.68550 | 115.81956 | 34950 ft | 530 kts | 53° |
| 2026-04-12 09:33 | 26.72682 | 115.88792 | 34952 ft | 530 kts | 53° |
| 2026-04-12 09:34 | 26.76812 | 115.95645 | 34957 ft | 531 kts | 53° |
| 2026-04-12 09:34 | 26.80942 | 116.02511 | 34952 ft | 532 kts | 53° |
| 2026-04-12 09:35 | 26.85078 | 116.09404 | 34961 ft | 533 kts | 53° |
| 2026-04-12 09:35 | 26.89201 | 116.16290 | 34969 ft | 532 kts | 53° |
| 2026-04-12 09:36 | 26.93589 | 116.22928 | 34953 ft | 528 kts | 43° |
| 2026-04-12 09:36 | 26.98577 | 116.28920 | 34949 ft | 529 kts | 43° |
| 2026-04-12 09:37 | 27.03598 | 116.34963 | 34953 ft | 530 kts | 43° |
| 2026-04-12 09:37 | 27.08618 | 116.41036 | 34952 ft | 531 kts | 43° |
| 2026-04-12 09:38 | 27.13640 | 116.47108 | 34963 ft | 530 kts | 43° |
| 2026-04-12 09:38 | 27.18655 | 116.53179 | 34965 ft | 530 kts | 43° |
| 2026-04-12 09:39 | 27.23679 | 116.59235 | 34966 ft | 530 kts | 43° |
| 2026-04-12 09:39 | 27.28804 | 116.65195 | 34962 ft | 529 kts | 41° |
| 2026-04-12 09:40 | 27.33957 | 116.71112 | 34964 ft | 529 kts | 41° |
| 2026-04-12 09:40 | 27.39052 | 116.77020 | 34970 ft | 529 kts | 42° |
| 2026-04-12 09:41 | 27.44152 | 116.82992 | 34973 ft | 529 kts | 42° |
| 2026-04-12 09:41 | 27.49239 | 116.88976 | 34975 ft | 528 kts | 42° |
| 2026-04-12 09:42 | 27.54332 | 116.94946 | 34975 ft | 528 kts | 41° |
| 2026-04-12 09:42 | 27.59461 | 117.00868 | 34973 ft | 528 kts | 41° |
| 2026-04-12 09:43 | 27.69743 | 117.12704 | 34979 ft | 528 kts | 41° |
| 2026-04-12 09:44 | 27.74858 | 117.18645 | 34983 ft | 528 kts | 41° |
| 2026-04-12 09:44 | 27.79969 | 117.24604 | 34987 ft | 527 kts | 41° |
| 2026-04-12 09:45 | 27.85043 | 117.30520 | 34982 ft | 528 kts | 41° |
| 2026-04-12 09:45 | 27.90164 | 117.36485 | 34979 ft | 528 kts | 41° |
| 2026-04-12 09:46 | 27.95280 | 117.42444 | 34990 ft | 528 kts | 41° |
| 2026-04-12 09:46 | 28.00390 | 117.48415 | 34991 ft | 528 kts | 41° |
| 2026-04-12 09:47 | 28.05498 | 117.54394 | 34994 ft | 528 kts | 41° |
| 2026-04-12 09:47 | 28.10597 | 117.60373 | 34990 ft | 528 kts | 41° |
| 2026-04-12 09:48 | 28.15704 | 117.66375 | 34993 ft | 528 kts | 41° |
| 2026-04-12 09:48 | 28.20806 | 117.72370 | 34993 ft | 528 kts | 41° |
| 2026-04-12 09:49 | 28.25910 | 117.78385 | 34985 ft | 529 kts | 41° |
| 2026-04-12 09:49 | 28.31016 | 117.84401 | 34983 ft | 529 kts | 41° |
| 2026-04-12 09:50 | 28.36116 | 117.90424 | 34986 ft | 529 kts | 41° |
| 2026-04-12 09:50 | 28.41181 | 117.96422 | 34987 ft | 529 kts | 41° |
| 2026-04-12 09:51 | 28.46238 | 118.02512 | 34987 ft | 530 kts | 43° |
| 2026-04-12 09:51 | 28.51237 | 118.08698 | 34984 ft | 531 kts | 43° |
| 2026-04-12 09:52 | 28.56225 | 118.14899 | 34986 ft | 531 kts | 43° |
| 2026-04-12 09:52 | 28.61229 | 118.21083 | 34988 ft | 531 kts | 43° |
| 2026-04-12 09:53 | 28.66244 | 118.27271 | 34985 ft | 532 kts | 43° |
| 2026-04-12 09:53 | 28.71258 | 118.33469 | 34987 ft | 532 kts | 43° |
| 2026-04-12 09:54 | 28.76266 | 118.39671 | 34992 ft | 532 kts | 43° |
| 2026-04-12 09:54 | 28.81281 | 118.45881 | 34992 ft | 532 kts | 43° |
| 2026-04-12 09:55 | 28.85442 | 118.51052 | 34989 ft | 533 kts | 43° |
| 2026-04-12 09:55 | 28.90449 | 118.57293 | 34992 ft | 533 kts | 43° |
| 2026-04-12 09:56 | 28.95449 | 118.63537 | 34992 ft | 533 kts | 43° |
| 2026-04-12 09:56 | 29.00461 | 118.69794 | 34995 ft | 533 kts | 43° |
| 2026-04-12 09:57 | 29.05473 | 118.76053 | 34993 ft | 534 kts | 43° |
| 2026-04-12 09:57 | 29.10466 | 118.82297 | 34991 ft | 536 kts | 43° |
| 2026-04-12 09:58 | 29.15500 | 118.88603 | 34999 ft | 537 kts | 43° |
| 2026-04-12 09:58 | 29.20522 | 118.94920 | 35009 ft | 535 kts | 43° |
| 2026-04-12 09:59 | 29.25545 | 119.01239 | 34995 ft | 537 kts | 43° |
| 2026-04-12 09:59 | 29.30575 | 119.07572 | 34996 ft | 537 kts | 43° |
| 2026-04-12 10:00 | 29.35596 | 119.13917 | 34994 ft | 538 kts | 43° |
| 2026-04-12 10:00 | 29.40626 | 119.20295 | 34997 ft | 538 kts | 43° |
| 2026-04-12 10:01 | 29.45614 | 119.26629 | 35001 ft | 538 kts | 43° |
| 2026-04-12 10:01 | 29.50630 | 119.33013 | 35003 ft | 538 kts | 43° |
| 2026-04-12 10:02 | 29.55643 | 119.39393 | 35002 ft | 539 kts | 43° |
| 2026-04-12 10:02 | 29.60097 | 119.46356 | 34985 ft | 547 kts | 61° |
| 2026-04-12 10:03 | 29.62537 | 119.54641 | 34991 ft | 549 kts | 82° |
| 2026-04-12 10:03 | 29.62811 | 119.63265 | 34865 ft | 529 kts | 94° |
| 2026-04-12 10:03 | 29.62707 | 119.67449 | 34594 ft | 522 kts | 94° |
| 2026-04-12 10:04 | 29.62611 | 119.71598 | 34322 ft | 514 kts | 94° |
| 2026-04-12 10:04 | 29.62525 | 119.75665 | 34049 ft | 505 kts | 94° |
| 2026-04-12 10:04 | 29.62447 | 119.79663 | 33761 ft | 497 kts | 94° |
| 2026-04-12 10:04 | 29.62370 | 119.83603 | 33459 ft | 492 kts | 94° |
| 2026-04-12 10:05 | 29.62287 | 119.87544 | 33157 ft | 493 kts | 94° |
| 2026-04-12 10:05 | 29.62199 | 119.91483 | 32865 ft | 493 kts | 94° |
| 2026-04-12 10:05 | 29.62110 | 119.95422 | 32565 ft | 493 kts | 94° |
| 2026-04-12 10:05 | 29.62026 | 119.99288 | 32276 ft | 485 kts | 94° |
| 2026-04-12 10:06 | 29.61944 | 120.03134 | 31984 ft | 478 kts | 94° |
| 2026-04-12 10:06 | 29.61859 | 120.06922 | 31696 ft | 470 kts | 95° |
| 2026-04-12 10:06 | 29.61773 | 120.10654 | 31416 ft | 463 kts | 95° |
| 2026-04-12 10:06 | 29.61684 | 120.14332 | 31145 ft | 460 kts | 95° |
| 2026-04-12 10:07 | 29.61593 | 120.18014 | 30849 ft | 460 kts | 95° |
| 2026-04-12 10:07 | 29.61499 | 120.21694 | 30573 ft | 461 kts | 95° |
| 2026-04-12 10:07 | 29.61404 | 120.25377 | 30298 ft | 462 kts | 95° |
| 2026-04-12 10:07 | 29.61312 | 120.29055 | 30031 ft | 461 kts | 95° |
| 2026-04-12 10:08 | 29.61224 | 120.32758 | 29718 ft | 468 kts | 95° |
| 2026-04-12 10:08 | 29.61136 | 120.36480 | 29405 ft | 470 kts | 95° |
| 2026-04-12 10:08 | 29.61051 | 120.40229 | 29092 ft | 469 kts | 95° |
| 2026-04-12 10:08 | 29.60968 | 120.43958 | 28778 ft | 465 kts | 95° |
| 2026-04-12 10:09 | 29.60886 | 120.47648 | 28463 ft | 458 kts | 94° |
| 2026-04-12 10:09 | 29.60800 | 120.51290 | 28156 ft | 451 kts | 95° |
| 2026-04-12 10:09 | 29.60710 | 120.54868 | 27850 ft | 443 kts | 94° |
| 2026-04-12 10:09 | 29.60619 | 120.58375 | 27550 ft | 435 kts | 95° |
| 2026-04-12 10:10 | 29.60528 | 120.61832 | 27254 ft | 430 kts | 94° |
| 2026-04-12 10:10 | 29.60438 | 120.65271 | 26957 ft | 431 kts | 95° |
| 2026-04-12 10:10 | 29.60345 | 120.68703 | 26670 ft | 429 kts | 94° |
| 2026-04-12 10:10 | 29.60252 | 120.72107 | 26383 ft | 422 kts | 94° |
| 2026-04-12 10:11 | 29.60183 | 120.75449 | 26104 ft | 415 kts | 90° |
| 2026-04-12 10:11 | 29.60439 | 120.78725 | 25822 ft | 410 kts | 80° |
| 2026-04-12 10:11 | 29.61095 | 120.81900 | 25540 ft | 408 kts | 70° |
| 2026-04-12 10:11 | 29.62135 | 120.84960 | 25268 ft | 414 kts | 60° |
| 2026-04-12 10:12 | 29.63528 | 120.87809 | 25003 ft | 403 kts | 51° |
| 2026-04-12 10:12 | 29.65042 | 120.90437 | 24732 ft | 396 kts | 51° |
| 2026-04-12 10:12 | 29.66555 | 120.93066 | 24472 ft | 391 kts | 51° |
| 2026-04-12 10:12 | 29.68043 | 120.95656 | 24202 ft | 388 kts | 51° |
| 2026-04-12 10:13 | 29.69526 | 120.98241 | 23936 ft | 386 kts | 51° |
| 2026-04-12 10:13 | 29.71004 | 121.00813 | 23663 ft | 383 kts | 51° |
| 2026-04-12 10:13 | 29.72465 | 121.03356 | 23411 ft | 380 kts | 51° |
| 2026-04-12 10:13 | 29.73915 | 121.05885 | 23099 ft | 377 kts | 51° |
| 2026-04-12 10:14 | 29.75350 | 121.08392 | 22784 ft | 374 kts | 52° |
| 2026-04-12 10:14 | 29.76776 | 121.10890 | 22474 ft | 371 kts | 52° |
| 2026-04-12 10:14 | 29.78188 | 121.13366 | 22164 ft | 370 kts | 52° |
| 2026-04-12 10:14 | 29.79596 | 121.15833 | 21866 ft | 367 kts | 52° |
| 2026-04-12 10:15 | 29.80991 | 121.18279 | 21564 ft | 364 kts | 53° |
| 2026-04-12 10:15 | 29.82376 | 121.20707 | 21270 ft | 362 kts | 53° |
| 2026-04-12 10:15 | 29.83753 | 121.23124 | 20990 ft | 360 kts | 53° |
| 2026-04-12 10:15 | 29.85119 | 121.25528 | 20689 ft | 357 kts | 53° |
| 2026-04-12 10:16 | 29.86484 | 121.27906 | 20403 ft | 355 kts | 51° |
| 2026-04-12 10:16 | 29.87989 | 121.30148 | 20115 ft | 351 kts | 45° |
| 2026-04-12 10:16 | 29.89645 | 121.32177 | 19835 ft | 346 kts | 39° |
| 2026-04-12 10:16 | 29.91438 | 121.34003 | 19555 ft | 342 kts | 33° |
| 2026-04-12 10:17 | 29.93318 | 121.35603 | 19284 ft | 339 kts | 28° |
| 2026-04-12 10:17 | 29.95312 | 121.37011 | 19020 ft | 334 kts | 22° |
| 2026-04-12 10:17 | 29.97347 | 121.38281 | 18745 ft | 332 kts | 21° |
| 2026-04-12 10:17 | 29.99374 | 121.39546 | 18473 ft | 330 kts | 22° |
| 2026-04-12 10:18 | 30.01387 | 121.40805 | 18206 ft | 329 kts | 22° |
| 2026-04-12 10:18 | 30.03391 | 121.42057 | 17905 ft | 326 kts | 21° |
| 2026-04-12 10:18 | 30.05380 | 121.43302 | 17601 ft | 324 kts | 21° |
| 2026-04-12 10:18 | 30.07354 | 121.44541 | 17296 ft | 322 kts | 22° |
| 2026-04-12 10:19 | 30.09311 | 121.45769 | 16995 ft | 319 kts | 22° |
| 2026-04-12 10:19 | 30.11254 | 121.46988 | 16696 ft | 316 kts | 22° |
| 2026-04-12 10:19 | 30.13179 | 121.48194 | 16399 ft | 313 kts | 21° |
| 2026-04-12 10:19 | 30.15090 | 121.49392 | 16103 ft | 311 kts | 22° |
| 2026-04-12 10:20 | 30.16989 | 121.50583 | 15815 ft | 309 kts | 22° |
| 2026-04-12 10:20 | 30.18873 | 121.51767 | 15518 ft | 307 kts | 22° |
| 2026-04-12 10:20 | 30.20744 | 121.52943 | 15244 ft | 305 kts | 22° |
| 2026-04-12 10:20 | 30.22606 | 121.54114 | 14960 ft | 304 kts | 22° |
| 2026-04-12 10:21 | 30.24455 | 121.55279 | 14683 ft | 302 kts | 22° |
| 2026-04-12 10:21 | 30.26268 | 121.56426 | 14404 ft | 300 kts | 23° |
| 2026-04-12 10:21 | 30.28111 | 121.57610 | 14125 ft | 298 kts | 24° |
| 2026-04-12 10:21 | 30.29898 | 121.58767 | 13827 ft | 298 kts | 24° |
| 2026-04-12 10:22 | 30.31715 | 121.59945 | 13461 ft | 299 kts | 25° |
| 2026-04-12 10:22 | 30.33526 | 121.61122 | 13082 ft | 300 kts | 25° |
| 2026-04-12 10:22 | 30.35332 | 121.62296 | 12705 ft | 293 kts | 25° |
| 2026-04-12 10:22 | 30.37076 | 121.63431 | 12322 ft | 283 kts | 24° |
| 2026-04-12 10:23 | 30.38798 | 121.64524 | 11967 ft | 281 kts | 24° |
| 2026-04-12 10:23 | 30.40521 | 121.65595 | 11597 ft | 281 kts | 24° |
| 2026-04-12 10:23 | 30.42240 | 121.66659 | 11236 ft | 280 kts | 24° |
| 2026-04-12 10:23 | 30.43942 | 121.67714 | 10873 ft | 273 kts | 24° |
| 2026-04-12 10:24 | 30.45594 | 121.68741 | 10519 ft | 267 kts | 24° |
| 2026-04-12 10:24 | 30.47223 | 121.69753 | 10172 ft | 265 kts | 25° |
| 2026-04-12 10:24 | 30.48845 | 121.70760 | 9830 ft | 265 kts | 25° |
| 2026-04-12 10:24 | 30.50473 | 121.71773 | 9452 ft | 266 kts | 25° |
| 2026-04-12 10:25 | 30.52104 | 121.72793 | 9094 ft | 265 kts | 25° |
| 2026-04-12 10:25 | 30.53716 | 121.73803 | 8835 ft | 261 kts | 25° |
| 2026-04-12 10:25 | 30.55291 | 121.74770 | 8563 ft | 257 kts | 21° |
| 2026-04-12 10:25 | 30.56939 | 121.75512 | 8293 ft | 252 kts | 17° |
| 2026-04-12 10:26 | 30.58568 | 121.76219 | 8019 ft | 248 kts | 17° |
| 2026-04-12 10:26 | 30.60174 | 121.76919 | 7748 ft | 245 kts | 18° |
| 2026-04-12 10:26 | 30.61761 | 121.77610 | 7487 ft | 242 kts | 18° |
| 2026-04-12 10:26 | 30.63327 | 121.78294 | 7225 ft | 239 kts | 18° |
| 2026-04-12 10:27 | 30.64879 | 121.78975 | 6958 ft | 236 kts | 18° |
| 2026-04-12 10:27 | 30.66406 | 121.79645 | 6702 ft | 234 kts | 18° |
| 2026-04-12 10:27 | 30.67921 | 121.80308 | 6446 ft | 232 kts | 18° |
| 2026-04-12 10:27 | 30.69424 | 121.80967 | 6189 ft | 230 kts | 19° |
| 2026-04-12 10:28 | 30.70899 | 121.81666 | 5906 ft | 229 kts | 27° |
| 2026-04-12 10:28 | 30.72196 | 121.82734 | 5631 ft | 228 kts | 43° |
| 2026-04-12 10:28 | 30.73202 | 121.84149 | 5363 ft | 228 kts | 58° |
| 2026-04-12 10:28 | 30.73861 | 121.85813 | 5095 ft | 226 kts | 73° |
| 2026-04-12 10:29 | 30.74335 | 121.87553 | 4831 ft | 225 kts | 72° |
| 2026-04-12 10:29 | 30.74813 | 121.89272 | 4561 ft | 222 kts | 72° |
| 2026-04-12 10:29 | 30.75288 | 121.90966 | 4283 ft | 220 kts | 72° |
| 2026-04-12 10:29 | 30.75761 | 121.92646 | 4009 ft | 217 kts | 72° |
| 2026-04-12 10:30 | 30.76301 | 121.94269 | 3745 ft | 214 kts | 56° |
| 2026-04-12 10:30 | 30.77390 | 121.95383 | 3470 ft | 210 kts | 22° |
| 2026-04-12 10:30 | 30.78788 | 121.95600 | 3194 ft | 201 kts | 349° |
| 2026-04-12 10:30 | 30.80079 | 121.95145 | 2919 ft | 193 kts | 342° |
| 2026-04-12 10:31 | 30.81356 | 121.94656 | 2722 ft | 193 kts | 343° |
| 2026-04-12 10:31 | 30.82630 | 121.94174 | 2527 ft | 193 kts | 344° |
| 2026-04-12 10:31 | 30.83906 | 121.93694 | 2324 ft | 193 kts | 344° |
| 2026-04-12 10:31 | 30.85184 | 121.93215 | 2117 ft | 193 kts | 344° |
| 2026-04-12 10:32 | 30.86458 | 121.92738 | 1973 ft | 192 kts | 343° |
| 2026-04-12 10:32 | 30.87738 | 121.92259 | 1913 ft | 194 kts | 344° |
| 2026-04-12 10:32 | 30.89018 | 121.91779 | 1948 ft | 191 kts | 344° |
| 2026-04-12 10:32 | 30.90200 | 121.91334 | 1925 ft | 167 kts | 344° |
| 2026-04-12 10:33 | 30.91251 | 121.90936 | 1919 ft | 156 kts | 344° |
| 2026-04-12 10:33 | 30.92285 | 121.90547 | 1908 ft | 154 kts | 344° |
| 2026-04-12 10:33 | 30.93299 | 121.90165 | 1932 ft | 151 kts | 345° |
| 2026-04-12 10:33 | 30.94296 | 121.89791 | 1922 ft | 150 kts | 345° |
| 2026-04-12 10:34 | 30.95277 | 121.89423 | 1916 ft | 152 kts | 344° |
| 2026-04-12 10:34 | 30.96294 | 121.89041 | 1910 ft | 153 kts | 345° |
| 2026-04-12 10:34 | 30.97298 | 121.88664 | 1914 ft | 151 kts | 345° |
| 2026-04-12 10:34 | 30.98299 | 121.88288 | 1911 ft | 151 kts | 345° |
| 2026-04-12 10:35 | 30.99294 | 121.87914 | 1912 ft | 150 kts | 344° |
| 2026-04-12 10:35 | 31.00295 | 121.87537 | 1909 ft | 151 kts | 345° |
| 2026-04-12 10:35 | 31.01295 | 121.87162 | 1910 ft | 151 kts | 345° |
| 2026-04-12 10:35 | 31.02294 | 121.86786 | 1906 ft | 152 kts | 345° |
| 2026-04-12 10:36 | 31.03309 | 121.86404 | 1840 ft | 153 kts | 345° |
| 2026-04-12 10:36 | 31.04322 | 121.86023 | 1692 ft | 152 kts | 345° |
| 2026-04-12 10:36 | 31.05326 | 121.85645 | 1507 ft | 152 kts | 345° |
| 2026-04-12 10:36 | 31.06328 | 121.85268 | 1307 ft | 150 kts | 346° |
| 2026-04-12 10:37 | 31.07317 | 121.84895 | 1107 ft | 149 kts | 346° |
| 2026-04-12 10:37 | 31.08309 | 121.84522 | 905 ft | 151 kts | 346° |
| 2026-04-12 10:37 | 31.09288 | 121.84154 | 734 ft | 145 kts | 345° |
| 2026-04-12 10:37 | 31.10238 | 121.83790 | 556 ft | 142 kts | 345° |
| 2026-04-12 10:38 | 31.11175 | 121.83438 | 388 ft | 142 kts | 344° |
| 2026-04-12 10:38 | 31.12106 | 121.83088 | 206 ft | 140 kts | 345° |
| 2026-04-12 10:38 | 31.13034 | 121.82747 | 39 ft | 140 kts | 344° |
| 2026-04-12 10:38 | 31.13829 | 121.82445 | 22 ft | 87 kts | 341° |
| 2026-04-12 10:39 | 31.14214 | 121.82302 | 23 ft | 33 kts | 341° |
| 2026-04-12 10:39 | 31.14400 | 121.82234 | 23 ft | 28 kts | 344° |
| 2026-04-12 10:39 | 31.14566 | 121.82166 | 23 ft | 15 kts | 340° |
| 2026-04-12 10:39 | 31.14669 | 121.82102 | 20 ft | 18 kts | 323° |
| 2026-04-12 10:40 | 31.14763 | 121.81997 | 22 ft | 19 kts | 311° |
| 2026-04-12 10:40 | 31.14827 | 121.81920 | 22 ft | 10 kts | 314° |
| 2026-04-12 10:40 | 31.14873 | 121.81867 | 21 ft | 9 kts | 321° |
| 2026-04-12 10:40 | 31.14925 | 121.81823 | 23 ft | 9 kts | 324° |
| 2026-04-12 10:41 | 31.14974 | 121.81797 | 22 ft | 7 kts | 321° |
| 2026-04-12 10:41 | 31.14984 | 121.81755 | 22 ft | 5 kts | 264° |
| 2026-04-12 10:41 | 31.14975 | 121.81721 | 22 ft | 4 kts | 251° |
| 2026-04-12 10:41 | 31.14965 | 121.81685 | 22 ft | 8 kts | 251° |
| 2026-04-12 10:42 | 31.14938 | 121.81588 | 24 ft | 14 kts | 252° |
| 2026-04-12 10:42 | 31.14909 | 121.81483 | 23 ft | 13 kts | 252° |
| 2026-04-12 10:42 | 31.14883 | 121.81391 | 23 ft | 11 kts | 251° |
| 2026-04-12 10:42 | 31.14861 | 121.81312 | 24 ft | 9 kts | 252° |
| 2026-04-12 10:43 | 31.14809 | 121.81125 | 26 ft | 13 kts | 252° |
| 2026-04-12 10:43 | 31.14808 | 121.81051 | 25 ft | 8 kts | 306° |
| 2026-04-12 10:43 | 31.14847 | 121.81023 | 23 ft | 5 kts | 313° |
| 2026-04-12 10:44 | 31.14851 | 121.80981 | 24 ft | 7 kts | 250° |
| 2026-04-12 10:44 | 31.14835 | 121.80933 | 24 ft | 4 kts | 252° |
| 2026-04-12 10:44 | 31.14833 | 121.80925 | 24 ft | 0 kts | 253° |